createdAt,value
2023-01-29T00:01:04.236Z,78.24
2023-01-29T00:03:07.188Z,77.81
2023-01-29T00:05:26.494Z,78.47
2023-01-29T00:07:30.761Z,77.33
2023-01-29T00:09:33.759Z,76.59
2023-01-29T00:11:36.777Z,75.88
2023-01-29T00:13:41.130Z,77.40
2023-01-29T00:15:53.390Z,76.94
2023-01-29T00:17:56.332Z,75.98
2023-01-29T00:19:59.378Z,75.95
2023-01-29T00:22:02.408Z,73.22
2023-01-29T00:24:05.958Z,72.04
2023-01-29T00:26:09.213Z,72.12
2023-01-29T00:28:13.796Z,69.93
2023-01-29T00:30:20.195Z,70.54
2023-01-29T00:32:23.416Z,70.35
2023-01-29T00:34:26.323Z,70.95
2023-01-29T00:36:29.399Z,71.35
2023-01-29T00:38:32.437Z,71.06
2023-01-29T00:40:58.457Z,72.00
2023-01-29T00:43:20.157Z,70.62
2023-01-29T00:45:24.637Z,71.12
2023-01-29T00:47:34.020Z,71.98
2023-01-29T00:49:37.252Z,72.07
2023-01-29T00:51:40.679Z,71.54
2023-01-29T00:53:43.637Z,71.87
2023-01-29T00:55:46.737Z,71.15
2023-01-29T00:57:51.218Z,71.41
2023-01-29T00:59:54.279Z,72.57
2023-01-29T01:02:17.039Z,72.03
2023-01-29T01:04:23.684Z,72.38
2023-01-29T01:06:27.478Z,70.95
2023-01-29T01:08:49.079Z,72.18
2023-01-29T01:10:59.963Z,71.74
2023-01-29T01:13:14.910Z,73.32
2023-01-29T01:15:18.569Z,73.35
2023-01-29T01:17:23.042Z,72.99
2023-01-29T01:19:26.281Z,73.97
2023-01-29T01:21:29.317Z,73.78
2023-01-29T01:23:32.678Z,74.41
2023-01-29T01:25:35.639Z,74.20
2023-01-29T01:27:41.560Z,73.23
2023-01-29T01:29:44.440Z,74.22
2023-01-29T01:31:47.412Z,73.10
2023-01-29T01:33:54.630Z,73.94
2023-01-29T01:36:02.057Z,73.44
2023-01-29T01:38:05.178Z,73.78
2023-01-29T01:40:18.946Z,74.52
2023-01-29T01:42:22.042Z,74.84
2023-01-29T01:44:54.040Z,74.39
2023-01-29T01:46:57.055Z,75.16
2023-01-29T01:49:06.199Z,73.61
2023-01-29T01:51:09.598Z,75.13
2023-01-29T01:53:14.878Z,74.12
2023-01-29T01:55:20.040Z,73.79
2023-01-29T01:57:26.038Z,75.11
2023-01-29T01:59:29.148Z,74.77
2023-01-29T02:01:32.239Z,74.65
2023-01-29T02:03:58.240Z,75.00
2023-01-29T02:06:21.417Z,73.45
2023-01-29T02:08:51.082Z,74.67
2023-01-29T02:10:54.478Z,75.07
2023-01-29T02:12:57.550Z,75.11
2023-01-29T02:15:00.896Z,75.24
2023-01-29T02:17:03.954Z,75.43
2023-01-29T02:19:15.243Z,75.21
2023-01-29T02:21:42.077Z,75.71
2023-01-29T02:23:59.816Z,75.90
2023-01-29T02:26:21.039Z,74.97
2023-01-29T02:28:36.957Z,74.57
2023-01-29T02:30:48.796Z,74.50
2023-01-29T02:32:59.797Z,73.15
2023-01-29T02:35:47.034Z,72.92
2023-01-29T02:37:55.918Z,73.51
2023-01-29T02:40:10.357Z,73.28
2023-01-29T02:42:17.478Z,72.73
2023-01-29T02:44:30.677Z,73.37
2023-01-29T02:46:40.407Z,74.31
2023-01-29T02:48:49.598Z,74.08
2023-01-29T02:50:59.484Z,74.01
2023-01-29T02:53:08.600Z,73.99
2023-01-29T02:55:16.417Z,74.29
2023-01-29T02:57:23.356Z,75.07
2023-01-29T02:59:35.916Z,74.71
2023-01-29T03:01:46.488Z,75.47
2023-01-29T03:03:54.632Z,74.90
2023-01-29T03:06:06.569Z,75.72
2023-01-29T03:08:12.527Z,75.77
2023-01-29T03:10:20.518Z,75.68
2023-01-29T03:12:34.478Z,76.30
2023-01-29T03:15:01.652Z,76.34
2023-01-29T03:17:09.079Z,76.04
2023-01-29T03:19:17.638Z,75.55
2023-01-29T03:21:44.316Z,76.17
2023-01-29T03:24:06.668Z,76.19
2023-01-29T03:26:28.530Z,75.79
2023-01-29T03:28:51.067Z,76.32
2023-01-29T03:31:16.437Z,76.76
2023-01-29T03:33:26.897Z,76.54
2023-01-29T03:35:35.854Z,76.62
2023-01-29T03:37:44.530Z,77.08
2023-01-29T03:39:48.438Z,77.04
2023-01-29T03:41:56.957Z,77.15
2023-01-29T03:44:10.881Z,77.11
2023-01-29T03:46:24.877Z,76.78
2023-01-29T03:48:33.557Z,76.75
2023-01-29T03:50:42.319Z,77.25
2023-01-29T03:52:52.002Z,77.39
2023-01-29T03:55:01.516Z,77.40
2023-01-29T03:57:17.716Z,77.33
2023-01-29T03:59:33.476Z,77.45
2023-01-29T04:02:13.302Z,76.95
2023-01-29T04:04:22.709Z,77.34
2023-01-29T04:06:30.437Z,77.24
2023-01-29T04:08:48.917Z,78.01
2023-01-29T04:10:55.287Z,78.26
2023-01-29T04:13:02.681Z,78.67
2023-01-29T04:15:11.460Z,78.39
2023-01-29T04:17:19.603Z,78.06
2023-01-29T04:19:32.357Z,78.13
2023-01-29T04:21:37.970Z,78.51
2023-01-29T04:23:41.891Z,77.56
2023-01-29T04:25:53.076Z,78.05
2023-01-29T04:28:04.513Z,78.16
2023-01-29T04:30:21.477Z,77.88
2023-01-29T04:32:33.036Z,78.17
2023-01-29T04:34:52.056Z,78.47
2023-01-29T04:37:04.936Z,78.38
2023-01-29T04:39:18.440Z,78.51
2023-01-29T04:41:28.077Z,78.58
2023-01-29T04:43:40.284Z,79.59
2023-01-29T04:45:55.276Z,78.35
2023-01-29T04:48:10.236Z,79.02
2023-01-29T04:50:18.699Z,78.73
2023-01-29T04:52:29.117Z,79.86
2023-01-29T04:54:43.481Z,79.67
2023-01-29T04:56:53.839Z,78.88
2023-01-29T04:59:01.268Z,79.63
2023-01-29T05:01:09.556Z,80.41
2023-01-29T05:03:15.876Z,79.22
2023-01-29T05:05:21.237Z,80.23
2023-01-29T05:07:27.044Z,80.08
2023-01-29T05:09:30.519Z,80.13
2023-01-29T05:11:35.296Z,79.80
2023-01-29T05:13:42.250Z,79.52
2023-01-29T05:15:49.153Z,80.02
2023-01-29T05:17:54.157Z,79.97
2023-01-29T05:19:58.678Z,80.81
2023-01-29T05:22:05.658Z,79.81
2023-01-29T05:24:13.319Z,80.96
2023-01-29T05:26:35.009Z,80.53
2023-01-29T05:28:37.911Z,80.99
2023-01-29T05:30:40.972Z,80.14
2023-01-29T05:32:43.812Z,80.76
2023-01-29T05:34:47.117Z,80.62
2023-01-29T05:36:51.614Z,81.19
2023-01-29T05:38:54.497Z,81.84
2023-01-29T05:40:59.650Z,81.85
2023-01-29T05:43:02.841Z,82.61
2023-01-29T05:45:06.709Z,81.93
2023-01-29T05:47:09.757Z,81.96
2023-01-29T05:49:13.077Z,81.20
2023-01-29T05:51:16.314Z,82.18
2023-01-29T05:53:20.698Z,81.74
2023-01-29T05:55:23.637Z,82.39
2023-01-29T05:57:26.806Z,82.82
2023-01-29T05:59:31.527Z,82.99
2023-01-29T06:01:34.592Z,82.84
2023-01-29T06:03:37.682Z,83.42
2023-01-29T06:05:40.914Z,82.31
2023-01-29T06:07:45.667Z,83.32
2023-01-29T06:09:50.122Z,82.48
2023-01-29T06:11:53.318Z,83.15
2023-01-29T06:13:56.310Z,82.67
2023-01-29T06:15:59.386Z,83.10
2023-01-29T06:18:02.557Z,82.63
2023-01-29T06:20:06.926Z,82.46
2023-01-29T06:22:09.918Z,82.94
2023-01-29T06:24:12.971Z,82.99
2023-01-29T06:26:17.449Z,82.95
2023-01-29T06:28:20.517Z,82.78
2023-01-29T06:30:23.957Z,82.90
2023-01-29T06:32:27.864Z,83.44
2023-01-29T06:34:30.949Z,83.37
2023-01-29T06:36:34.121Z,83.44
2023-01-29T06:38:37.017Z,83.03
2023-01-29T06:40:40.139Z,83.12
2023-01-29T06:42:46.134Z,83.20
2023-01-29T06:44:49.998Z,83.02
2023-01-29T06:46:52.928Z,83.38
2023-01-29T06:48:59.578Z,82.84
2023-01-29T06:51:03.616Z,84.18
2023-01-29T06:53:06.637Z,83.43
2023-01-29T06:55:10.337Z,82.15
2023-01-29T06:57:13.441Z,82.55
2023-01-29T06:59:18.077Z,82.69
2023-01-29T07:01:36.888Z,82.84
2023-01-29T07:03:41.878Z,83.34
2023-01-29T07:05:50.657Z,82.75
2023-01-29T07:07:53.558Z,81.75
2023-01-29T07:09:56.479Z,81.52
2023-01-29T07:11:59.433Z,81.50
2023-01-29T07:14:02.591Z,80.49
2023-01-29T07:16:07.623Z,80.62
2023-01-29T07:18:13.876Z,81.03
2023-01-29T07:20:17.580Z,80.91
2023-01-29T07:22:20.709Z,80.88
2023-01-29T07:24:23.742Z,79.71
2023-01-29T07:26:26.940Z,80.04
2023-01-29T07:28:31.197Z,79.86
2023-01-29T07:30:34.648Z,79.07
2023-01-29T07:32:38.937Z,78.68
2023-01-29T07:34:41.820Z,79.45
2023-01-29T07:36:45.048Z,79.80
2023-01-29T07:38:50.902Z,78.61
2023-01-29T07:40:53.921Z,79.23
2023-01-29T07:42:59.269Z,78.75
2023-01-29T07:45:02.926Z,79.37
2023-01-29T07:47:06.157Z,78.58
2023-01-29T07:49:10.559Z,78.79
2023-01-29T07:51:13.516Z,78.87
2023-01-29T07:53:17.437Z,79.04
2023-01-29T07:55:20.558Z,78.05
2023-01-29T07:57:23.669Z,78.69
2023-01-29T07:59:26.957Z,78.90
2023-01-29T08:01:29.861Z,79.18
2023-01-29T08:03:32.969Z,78.29
2023-01-29T08:05:37.407Z,77.40
2023-01-29T08:07:40.479Z,78.32
2023-01-29T08:09:43.615Z,78.47
2023-01-29T08:11:46.818Z,77.80
2023-01-29T08:13:49.732Z,77.67
2023-01-29T08:15:52.655Z,77.75
2023-01-29T08:17:57.952Z,77.79
2023-01-29T08:20:01.366Z,77.59
2023-01-29T08:22:06.401Z,76.02
2023-01-29T08:24:09.648Z,76.95
2023-01-29T08:26:12.533Z,77.14
2023-01-29T08:28:15.497Z,77.06
2023-01-29T08:30:18.825Z,76.20
2023-01-29T08:32:21.757Z,75.89
2023-01-29T08:34:24.688Z,75.34
2023-01-29T08:36:27.919Z,75.33
2023-01-29T08:38:32.517Z,74.90
2023-01-29T08:40:35.884Z,74.97
2023-01-29T08:42:38.761Z,75.33
2023-01-29T08:44:41.917Z,74.49
2023-01-29T08:46:45.007Z,74.82
2023-01-29T08:48:48.037Z,74.78
2023-01-29T08:50:51.397Z,74.10
2023-01-29T08:52:58.382Z,73.83
2023-01-29T08:55:02.700Z,73.19
2023-01-29T08:57:05.879Z,73.15
2023-01-29T08:59:10.123Z,73.02
2023-01-29T09:01:14.577Z,72.92
2023-01-29T09:03:17.523Z,73.04
2023-01-29T09:05:20.704Z,71.09
2023-01-29T09:07:23.627Z,71.30
2023-01-29T09:09:26.757Z,70.72
2023-01-29T09:11:31.199Z,72.48
2023-01-29T09:13:34.557Z,70.07
2023-01-29T09:15:37.418Z,69.98
2023-01-29T09:17:41.376Z,69.17
2023-01-29T09:19:44.295Z,69.37
2023-01-29T09:21:47.308Z,69.77
2023-01-29T09:23:50.277Z,69.67
2023-01-29T09:25:53.277Z,68.98
2023-01-29T09:27:57.627Z,68.91
2023-01-29T09:30:00.878Z,68.62
2023-01-29T09:32:04.936Z,69.39
2023-01-29T09:34:07.808Z,68.85
2023-01-29T09:36:10.998Z,67.82
2023-01-29T09:38:14.608Z,67.03
2023-01-29T09:40:26.427Z,66.15
2023-01-29T09:42:36.477Z,66.52
2023-01-29T09:44:54.497Z,67.36
2023-01-29T09:47:00.547Z,66.44
2023-01-29T09:49:11.317Z,65.98
2023-01-29T09:51:22.238Z,66.70
2023-01-29T09:53:31.999Z,64.96
2023-01-29T09:55:41.878Z,64.95
2023-01-29T09:57:48.435Z,64.68
2023-01-29T09:59:52.979Z,63.53
2023-01-29T10:02:05.743Z,62.77
2023-01-29T10:04:28.214Z,61.45
2023-01-29T10:06:49.480Z,59.70
2023-01-29T10:09:30.798Z,60.53
2023-01-29T10:11:43.838Z,62.75
2023-01-29T10:13:56.087Z,59.77
2023-01-29T10:16:12.077Z,60.45
2023-01-29T10:18:45.527Z,59.95
2023-01-29T10:20:58.477Z,59.52
2023-01-29T10:23:21.218Z,56.88
2023-01-29T10:25:24.476Z,57.68
2023-01-29T10:27:33.452Z,58.19
2023-01-29T10:29:36.659Z,58.86
2023-01-29T10:31:41.573Z,58.14
2023-01-29T10:34:01.420Z,58.18
2023-01-29T10:36:10.231Z,56.73
2023-01-29T10:38:24.751Z,58.82
2023-01-29T10:40:44.367Z,57.27
2023-01-29T10:42:53.418Z,54.13
2023-01-29T10:45:13.358Z,57.17
2023-01-29T10:47:45.660Z,55.73
2023-01-29T10:50:06.491Z,56.64
2023-01-29T10:52:32.397Z,56.35
2023-01-29T10:54:56.597Z,57.71
2023-01-29T10:57:11.658Z,57.73
2023-01-29T10:59:33.513Z,57.89
2023-01-29T11:01:36.385Z,58.95
2023-01-29T11:03:41.099Z,59.66
2023-01-29T11:05:51.708Z,58.01
2023-01-29T11:08:03.349Z,57.04
2023-01-29T11:10:12.160Z,58.25
2023-01-29T11:12:19.536Z,58.40
2023-01-29T11:14:27.487Z,58.26
2023-01-29T11:16:30.973Z,57.86
2023-01-29T11:18:54.036Z,58.45
2023-01-29T11:21:03.184Z,59.24
2023-01-29T11:23:07.633Z,60.30
2023-01-29T11:25:17.239Z,60.24
2023-01-29T11:27:26.238Z,59.59
2023-01-29T11:29:38.236Z,60.01
2023-01-29T11:31:41.367Z,61.63
2023-01-29T11:33:45.734Z,61.91
2023-01-29T11:35:53.044Z,62.21
2023-01-29T11:38:08.255Z,63.25
2023-01-29T11:40:41.373Z,62.04
2023-01-29T11:42:44.758Z,62.15
2023-01-29T11:44:47.918Z,62.13
2023-01-29T11:46:51.117Z,62.78
2023-01-29T11:48:59.331Z,63.02
2023-01-29T11:51:13.367Z,61.88
2023-01-29T11:53:29.838Z,61.85
2023-01-29T11:55:49.828Z,62.97
2023-01-29T11:57:57.000Z,62.39
2023-01-29T12:00:03.038Z,61.13
2023-01-29T12:02:23.774Z,61.69
2023-01-29T12:04:26.810Z,61.25
2023-01-29T12:06:35.680Z,61.46
2023-01-29T12:08:40.318Z,59.80
2023-01-29T12:10:44.177Z,60.88
2023-01-29T12:12:47.279Z,61.24
2023-01-29T12:15:04.502Z,59.92
2023-01-29T12:17:12.998Z,60.21
2023-01-29T12:19:27.718Z,60.90
2023-01-29T12:21:38.518Z,60.95
2023-01-29T12:23:48.607Z,61.70
2023-01-29T12:26:01.846Z,61.42
2023-01-29T12:28:10.860Z,61.07
2023-01-29T12:30:20.090Z,60.86
2023-01-29T12:32:33.012Z,61.41
2023-01-29T12:34:46.037Z,62.62
2023-01-29T12:36:55.839Z,62.26
2023-01-29T12:38:59.681Z,64.19
2023-01-29T12:41:08.338Z,63.33
2023-01-29T12:43:16.267Z,61.91
2023-01-29T12:45:21.398Z,62.19
2023-01-29T12:47:30.648Z,61.96
2023-01-29T12:49:36.121Z,60.12
2023-01-29T12:51:41.151Z,61.30
2023-01-29T12:53:51.428Z,62.13
2023-01-29T12:55:58.317Z,60.97
2023-01-29T12:58:03.452Z,60.83
2023-01-29T13:00:12.718Z,62.20
2023-01-29T13:02:31.139Z,62.20
2023-01-29T13:04:40.721Z,59.92
2023-01-29T13:06:50.064Z,61.91
2023-01-29T13:08:58.517Z,60.75
2023-01-29T13:11:07.283Z,61.80
2023-01-29T13:13:19.678Z,59.50
2023-01-29T13:15:26.701Z,62.02
2023-01-29T13:17:36.605Z,61.36
2023-01-29T13:19:45.725Z,60.52
2023-01-29T13:21:49.160Z,61.85
2023-01-29T13:23:57.112Z,61.31
2023-01-29T13:26:00.789Z,59.54
2023-01-29T13:28:04.230Z,60.84
2023-01-29T13:30:09.153Z,60.83
2023-01-29T13:32:12.238Z,61.28
2023-01-29T13:34:19.819Z,62.01
2023-01-29T13:36:27.801Z,62.00
2023-01-29T13:38:33.839Z,62.52
2023-01-29T13:40:38.892Z,62.41
2023-01-29T13:42:46.300Z,63.55
2023-01-29T13:44:50.917Z,61.04
2023-01-29T13:46:59.850Z,61.59
2023-01-29T13:49:05.557Z,62.22
2023-01-29T13:51:18.139Z,63.43
2023-01-29T13:53:24.759Z,63.84
2023-01-29T13:55:31.837Z,62.75
2023-01-29T13:57:55.386Z,64.93
2023-01-29T13:59:59.241Z,62.93
2023-01-29T14:02:04.474Z,63.68
2023-01-29T14:04:25.895Z,64.82
2023-01-29T14:06:49.558Z,65.32
2023-01-29T14:08:52.558Z,63.86
2023-01-29T14:11:29.367Z,65.35
2023-01-29T14:13:37.120Z,65.11
2023-01-29T14:15:40.597Z,64.08
2023-01-29T14:18:03.597Z,63.72
2023-01-29T14:20:19.817Z,64.97
2023-01-29T14:22:25.114Z,65.90
2023-01-29T14:24:31.387Z,63.88
2023-01-29T14:26:45.958Z,65.72
2023-01-29T14:28:59.129Z,64.56
2023-01-29T14:31:03.262Z,65.55
2023-01-29T14:33:07.149Z,65.27
2023-01-29T14:35:19.575Z,65.60
2023-01-29T14:37:29.317Z,65.14
2023-01-29T14:39:37.476Z,65.17
2023-01-29T14:41:40.285Z,65.48
2023-01-29T14:43:43.246Z,66.97
2023-01-29T14:45:48.964Z,65.41
2023-01-29T14:48:20.874Z,66.78
2023-01-29T14:50:54.555Z,66.14
2023-01-29T14:53:02.596Z,64.70
2023-01-29T14:55:09.636Z,65.56
2023-01-29T14:57:16.411Z,66.54
2023-01-29T14:59:24.358Z,66.14
2023-01-29T15:01:33.162Z,66.57
2023-01-29T15:03:44.018Z,65.31
2023-01-29T15:05:49.438Z,64.51
2023-01-29T15:07:58.938Z,65.61
2023-01-29T15:10:22.328Z,65.49
2023-01-29T15:12:32.000Z,64.78
2023-01-29T15:14:38.423Z,71.04
2023-01-29T15:16:53.067Z,65.26
2023-01-29T15:19:04.770Z,64.44
2023-01-29T15:21:12.948Z,65.41
2023-01-29T15:23:26.227Z,65.78
2023-01-29T15:25:34.709Z,64.69
2023-01-29T15:27:42.498Z,65.32
2023-01-29T15:29:51.687Z,64.65
2023-01-29T15:31:57.268Z,64.14
2023-01-29T15:34:06.654Z,64.47
2023-01-29T15:36:19.337Z,66.26
2023-01-29T15:38:24.677Z,66.40
2023-01-29T15:40:28.229Z,67.16
2023-01-29T15:42:44.999Z,68.35
2023-01-29T15:44:48.513Z,69.30
2023-01-29T15:46:55.228Z,69.15
2023-01-29T15:49:02.800Z,70.37
2023-01-29T15:51:07.861Z,69.80
2023-01-29T15:53:16.367Z,70.16
2023-01-29T15:55:23.637Z,70.59
2023-01-29T15:57:33.244Z,70.92
2023-01-29T15:59:42.881Z,70.83
2023-01-29T16:01:46.354Z,70.43
2023-01-29T16:03:50.978Z,69.72
2023-01-29T16:05:55.951Z,69.05
2023-01-29T16:08:01.277Z,70.33
2023-01-29T16:10:05.997Z,70.32
2023-01-29T16:12:13.397Z,70.25
2023-01-29T16:14:20.911Z,69.75
2023-01-29T16:16:26.238Z,70.57
2023-01-29T16:18:30.258Z,71.45
2023-01-29T16:20:45.136Z,71.22
2023-01-29T16:22:49.517Z,70.31
2023-01-29T16:24:53.525Z,71.41
2023-01-29T16:27:00.739Z,71.70
2023-01-29T16:29:08.621Z,70.32
2023-01-29T16:31:14.383Z,72.25
2023-01-29T16:33:18.050Z,71.54
2023-01-29T16:35:21.139Z,71.78
2023-01-29T16:37:27.079Z,71.92
2023-01-29T16:39:34.907Z,72.26
2023-01-29T16:41:38.783Z,72.97
2023-01-29T16:43:51.535Z,73.06
2023-01-29T16:46:04.758Z,72.67
2023-01-29T16:48:28.084Z,72.37
2023-01-29T16:50:43.285Z,72.14
2023-01-29T16:52:57.765Z,72.03
2023-01-29T16:55:21.836Z,72.94
2023-01-29T16:57:27.007Z,72.77
2023-01-29T16:59:33.596Z,71.83
2023-01-29T17:01:37.201Z,72.19
2023-01-29T17:03:41.952Z,73.52
2023-01-29T17:05:45.827Z,72.12
2023-01-29T17:07:49.019Z,72.58
2023-01-29T17:09:56.142Z,72.78
2023-01-29T17:12:03.826Z,71.82
2023-01-29T17:14:08.108Z,72.66
2023-01-29T17:16:24.425Z,72.96
2023-01-29T17:18:27.337Z,72.49
2023-01-29T17:20:31.900Z,73.15
2023-01-29T17:22:34.778Z,72.57
2023-01-29T17:24:37.554Z,72.85
2023-01-29T17:26:41.145Z,71.87
2023-01-29T17:28:46.188Z,72.12
2023-01-29T17:31:04.252Z,73.11
2023-01-29T17:33:13.954Z,72.65
2023-01-29T17:35:17.928Z,73.26
2023-01-29T17:37:21.157Z,72.34
2023-01-29T17:39:25.859Z,72.88
2023-01-29T17:41:30.786Z,72.36
2023-01-29T17:43:33.798Z,72.02
2023-01-29T17:45:39.090Z,72.51
2023-01-29T17:47:42.078Z,71.75
2023-01-29T17:49:44.997Z,72.59
2023-01-29T17:51:49.437Z,72.26
2023-01-29T17:53:52.359Z,73.40
2023-01-29T17:55:55.248Z,73.68
2023-01-29T17:57:58.318Z,74.30
2023-01-29T18:00:01.282Z,73.61
2023-01-29T18:02:05.682Z,74.12
2023-01-29T18:04:09.603Z,74.88
2023-01-29T18:06:20.273Z,75.64
2023-01-29T18:08:28.828Z,75.95
2023-01-29T18:10:31.830Z,74.90
2023-01-29T18:12:35.158Z,76.98
2023-01-29T18:14:37.988Z,77.26
2023-01-29T18:16:41.763Z,77.66
2023-01-29T18:18:46.101Z,78.13
2023-01-29T18:20:49.299Z,77.79
2023-01-29T18:22:52.698Z,77.69
2023-01-29T18:24:55.661Z,77.56
2023-01-29T18:26:58.497Z,78.19
2023-01-29T18:29:01.450Z,79.10
2023-01-29T18:31:05.754Z,77.01
2023-01-29T18:33:09.168Z,77.78
2023-01-29T18:35:13.791Z,77.86
2023-01-29T18:37:16.960Z,78.48
2023-01-29T18:39:19.891Z,78.41
2023-01-29T18:41:22.880Z,77.55
2023-01-29T18:43:26.355Z,78.58
2023-01-29T18:45:30.238Z,77.58
2023-01-29T18:47:33.167Z,78.06
2023-01-29T18:49:39.430Z,78.53
2023-01-29T18:51:43.819Z,78.22
2023-01-29T18:53:50.264Z,78.82
2023-01-29T18:55:58.059Z,80.17
2023-01-29T18:58:28.420Z,79.78
2023-01-29T19:00:25.157Z,80.71
2023-01-29T19:02:28.246Z,80.35
2023-01-29T19:04:31.122Z,81.17
2023-01-29T19:06:37.022Z,80.91
2023-01-29T19:08:43.241Z,82.21
2023-01-29T19:10:46.562Z,81.81
2023-01-29T19:12:49.552Z,81.96
2023-01-29T19:14:52.398Z,82.03
2023-01-29T19:16:56.222Z,82.62
2023-01-29T19:19:00.163Z,82.42
2023-01-29T19:21:07.801Z,82.71
2023-01-29T19:23:10.940Z,82.49
2023-01-29T19:25:16.589Z,82.57
2023-01-29T19:27:20.073Z,82.87
2023-01-29T19:29:23.123Z,82.82
2023-01-29T19:31:26.389Z,82.66
2023-01-29T19:33:29.520Z,83.53
2023-01-29T19:35:33.890Z,83.70
2023-01-29T19:37:36.770Z,83.77
2023-01-29T19:39:39.679Z,83.58
2023-01-29T19:41:44.085Z,83.70
2023-01-29T19:43:48.561Z,84.02
2023-01-29T19:45:58.151Z,84.22
2023-01-29T19:48:01.208Z,84.04
2023-01-29T19:50:04.532Z,83.86
2023-01-29T19:52:15.105Z,84.50
2023-01-29T19:54:18.640Z,84.67
2023-01-29T19:56:22.641Z,84.46
2023-01-29T19:58:28.018Z,84.97
2023-01-29T20:00:31.349Z,85.44
2023-01-29T20:02:34.262Z,85.25
2023-01-29T20:04:36.983Z,85.86
2023-01-29T20:06:39.788Z,86.04
2023-01-29T20:08:43.126Z,86.00
2023-01-29T20:10:46.416Z,85.77
2023-01-29T20:12:49.705Z,86.12
2023-01-29T20:14:53.956Z,86.18
2023-01-29T20:16:56.707Z,85.94
2023-01-29T20:19:14.758Z,86.65
2023-01-29T20:21:20.814Z,86.23
2023-01-29T20:23:37.169Z,86.23
2023-01-29T20:25:41.144Z,85.85
2023-01-29T20:27:43.903Z,86.33
2023-01-29T20:29:46.959Z,86.77
2023-01-29T20:31:51.404Z,86.51
2023-01-29T20:33:54.368Z,87.17
2023-01-29T20:35:58.590Z,86.52
2023-01-29T20:38:02.258Z,87.05
2023-01-29T20:40:05.987Z,86.82
2023-01-29T20:42:09.097Z,87.15
2023-01-29T20:44:11.979Z,87.54
2023-01-29T20:46:14.958Z,87.11
2023-01-29T20:48:19.517Z,86.99
2023-01-29T20:50:22.518Z,87.35
2023-01-29T20:52:25.582Z,86.95
2023-01-29T20:54:30.199Z,87.37
2023-01-29T20:56:37.412Z,86.73
2023-01-29T20:58:47.152Z,87.34
2023-01-29T21:00:50.050Z,87.39
2023-01-29T21:02:52.996Z,87.71
2023-01-29T21:04:57.165Z,87.13
2023-01-29T21:06:59.954Z,86.92
2023-01-29T21:09:02.808Z,87.74
2023-01-29T21:11:06.981Z,87.46
2023-01-29T21:13:09.714Z,88.01
2023-01-29T21:15:12.938Z,87.56
2023-01-29T21:17:15.834Z,87.48
2023-01-29T21:19:18.884Z,86.58
2023-01-29T21:21:23.278Z,87.34
2023-01-29T21:23:26.206Z,87.25
2023-01-29T21:25:29.203Z,87.11
2023-01-29T21:27:32.165Z,87.45
2023-01-29T21:29:36.820Z,87.71
2023-01-29T21:31:40.583Z,86.95
2023-01-29T21:33:43.720Z,87.46
2023-01-29T21:35:46.596Z,87.32
2023-01-29T21:37:51.347Z,87.21
2023-01-29T21:39:54.366Z,87.15
2023-01-29T21:42:16.135Z,86.55
2023-01-29T21:44:19.108Z,85.96
2023-01-29T21:46:21.988Z,86.47
2023-01-29T21:48:25.418Z,86.37
2023-01-29T21:50:28.628Z,86.19
2023-01-29T21:52:31.716Z,85.72
2023-01-29T21:54:46.063Z,86.32
2023-01-29T21:56:49.013Z,85.94
2023-01-29T21:58:52.407Z,84.80
2023-01-29T22:00:55.318Z,85.78
2023-01-29T22:02:58.152Z,85.07
2023-01-29T22:05:18.028Z,85.02
2023-01-29T22:07:22.047Z,85.22
2023-01-29T22:09:25.057Z,84.48
2023-01-29T22:11:29.647Z,85.22
2023-01-29T22:13:32.640Z,84.51
2023-01-29T22:15:35.782Z,84.02
2023-01-29T22:17:41.617Z,83.23
2023-01-29T22:19:44.762Z,83.55
2023-01-29T22:21:47.766Z,83.84
2023-01-29T22:23:50.997Z,82.84
2023-01-29T22:25:53.968Z,84.13
2023-01-29T22:27:58.338Z,83.81
2023-01-29T22:30:01.235Z,83.62
2023-01-29T22:32:04.597Z,83.12
2023-01-29T22:34:07.726Z,83.34
2023-01-29T22:36:11.058Z,83.19
2023-01-29T22:38:14.061Z,82.53
2023-01-29T22:40:17.632Z,82.58
2023-01-29T22:42:21.081Z,82.85
2023-01-29T22:44:25.507Z,81.37
2023-01-29T22:46:28.616Z,82.86
2023-01-29T22:48:31.637Z,81.88
2023-01-29T22:50:34.577Z,80.71
2023-01-29T22:52:42.936Z,80.49
2023-01-29T22:54:45.917Z,80.41
2023-01-29T22:56:49.388Z,78.66
2023-01-29T22:58:52.933Z,80.34
2023-01-29T23:00:57.223Z,79.45
2023-01-29T23:03:00.398Z,79.81
2023-01-29T23:05:04.602Z,80.47
2023-01-29T23:07:07.640Z,79.98
2023-01-29T23:09:10.506Z,80.82
2023-01-29T23:11:17.936Z,78.80
2023-01-29T23:13:20.979Z,79.20
2023-01-29T23:15:24.037Z,78.55
2023-01-29T23:17:28.593Z,78.86
2023-01-29T23:19:31.667Z,78.87
2023-01-29T23:21:34.842Z,78.05
2023-01-29T23:23:38.398Z,77.94
2023-01-29T23:26:00.065Z,77.16
2023-01-29T23:28:02.950Z,79.08
2023-01-29T23:30:08.037Z,78.47
2023-01-29T23:32:11.780Z,77.20
2023-01-29T23:34:16.199Z,77.01
2023-01-29T23:36:19.243Z,77.94
2023-01-29T23:38:22.110Z,77.99
2023-01-29T23:40:25.103Z,78.85
2023-01-29T23:42:28.038Z,77.94
2023-01-29T23:44:31.097Z,78.18
2023-01-29T23:46:34.106Z,78.46
2023-01-29T23:48:37.155Z,78.39
2023-01-29T23:50:41.458Z,78.87
2023-01-29T23:52:44.315Z,77.96
2023-01-29T23:54:47.157Z,77.66
2023-01-29T23:56:50.208Z,77.34
2023-01-29T23:58:56.286Z,77.29
